CheckWX is a tool to help pilots better visualize weather data.  It is not intended as a substitute for an official pre-flight weather briefing.

00:44:46 UTC

EGPL METAR
Benbecula Airport
Balivanich, United Kingdom
Current

25 mins ago

EGPL 100020Z AUTO 30011KT 9999 BKN046/// 12/08 Q1017
Observed
Jul-10 @ 00:20 UTC
Wind
  • 300° at 11 KTS
Visibility
10,000+ meters
Flight Rules
VFR
Cloud Levels
  • Broken at 4,600' AGL
Temperature
12°C / 54°F
Dewpoint
C / 46°F
Humidity
77%
Altimeter
30.03" Hg
Pressure
1016.92 hPa
Previous

55 mins ago

EGPL 092350Z AUTO 30009KT 9999 FEW020/// 12/08 Q1017
Observed
Jul-9 @ 23:50 UTC
Wind
  • 300° at 9 KTS
Visibility
10,000+ meters
Flight Rules
VFR
Cloud Levels
  • Few at 2,000' AGL
Temperature
12°C / 54°F
Dewpoint
C / 46°F
Humidity
77%
Altimeter
30.03" Hg
Pressure
1016.92 hPa
Previous

1 hour ago

EGPL 092320Z AUTO 31009KT 9999 FEW021/// 12/08 Q1017
Observed
Jul-9 @ 23:20 UTC
Wind
  • 310° at 9 KTS
Visibility
10,000+ meters
Flight Rules
VFR
Cloud Levels
  • Few at 2,100' AGL
Temperature
12°C / 54°F
Dewpoint
C / 46°F
Humidity
77%
Altimeter
30.03" Hg
Pressure
1016.92 hPa